General Aviation Weather

Text Reports

Enter one or more of the following location identifiers separated by a space:

Zip Code, Four-Character ICAO or Three-Character IATA airport codes.

METAR - Aviation Routine Weather Report
KFLY - Meadow Lake, Colorado
Updated at 7:55 AM GMT on October 01, 2014 (1:55 AM MDT):
METAR KFLY 010755Z AUTO 31006KT 10SM CLR 07/M01 A2996 RMK AO2 T00731013
TAF - Terminal Area Forecast
KFLY - Meadow Lake, Colorado
Updated at 7:55 AM GMT on October 01, 2014 (1:55 AM MDT):
No TAF is currently available for this location.
Decoded:
No decoded TAF is available.
PIREP - Pilot Weather Report
KFLY - Meadow Lake, Colorado
Updated at 7:55 AM GMT on October 01, 2014 (1:55 AM MDT):
No PIREP is currently available for this location.
AIRMET - Airmens Meteorological Information
KFLY - Meadow Lake, Colorado
Updated at 7:55 AM GMT on October 01, 2014 (1:55 AM MDT):
No AIRMET is currently available for this location.
SIGMET - Significant Meteorological Information
KFLY - Meadow Lake, Colorado
Updated at 7:55 AM GMT on October 01, 2014 (1:55 AM MDT):
No SIGMET is currently available for this location.
NOTAM - Notice to Airmen
KFLY - Meadow Lake, Colorado
Updated at 7:55 AM GMT on October 01, 2014 (1:55 AM MDT):
No NOTAM is currently available for this location.
Forecast Area
KFLY - Meadow Lake, Colorado
Updated at 7:55 AM GMT on October 01, 2014 (1:55 AM MDT):
No NOTAM is currently available for this location.
Aviation Weather Maps